createdAt,value
2024-04-15T03:45:32.476Z,14.30
2024-04-15T03:47:59.503Z,14.50
2024-04-15T03:50:26.636Z,14.52
2024-04-15T03:52:55.677Z,14.26
2024-04-15T03:55:22.781Z,13.83
2024-04-15T03:57:49.858Z,13.82
2024-04-15T04:00:16.925Z,13.68
2024-04-15T04:02:44.048Z,13.89
2024-04-15T04:05:11.057Z,14.24
2024-04-15T04:07:38.558Z,14.33
2024-04-15T04:10:08.531Z,14.79
2024-04-15T04:12:35.581Z,14.87
2024-04-15T04:15:02.657Z,14.84
2024-04-15T04:17:30.408Z,14.41
2024-04-15T04:19:59.499Z,13.94
2024-04-15T04:22:27.842Z,13.89
2024-04-15T04:24:55.146Z,13.90
2024-04-15T04:27:22.180Z,14.26
2024-04-15T04:29:49.200Z,14.52
2024-04-15T04:32:16.235Z,14.85
2024-04-15T04:34:43.324Z,15.05
2024-04-15T04:37:10.656Z,15.08
2024-04-15T04:39:37.696Z,15.10
2024-04-15T04:42:06.348Z,14.79
2024-04-15T04:44:33.329Z,15.12
2024-04-15T04:47:00.755Z,15.06
2024-04-15T04:49:27.875Z,15.10
2024-04-15T04:51:54.890Z,15.08
2024-04-15T04:54:21.945Z,15.34
2024-04-15T04:56:48.909Z,15.55
2024-04-15T04:59:15.912Z,15.73
2024-04-15T05:01:43.116Z,16.23
2024-04-15T05:04:12.241Z,16.10
2024-04-15T05:06:39.371Z,16.54
2024-04-15T05:09:09.025Z,16.67
2024-04-15T05:11:37.506Z,16.84
2024-04-15T05:14:04.685Z,17.06
2024-04-15T05:16:32.083Z,16.93
2024-04-15T05:18:59.380Z,16.65
2024-04-15T05:21:28.497Z,16.94
2024-04-15T05:23:57.502Z,17.15
2024-04-15T05:26:24.517Z,17.07
2024-04-15T05:28:51.593Z,17.12
2024-04-15T05:31:18.594Z,16.90
2024-04-15T05:33:45.685Z,16.68
2024-04-15T05:36:12.772Z,17.07
2024-04-15T05:38:39.787Z,17.31
2024-04-15T05:41:06.805Z,17.85
2024-04-15T05:43:33.867Z,18.33
2024-04-15T05:46:04.650Z,18.72
2024-04-15T05:48:33.287Z,18.92
2024-04-15T05:51:00.324Z,18.21
2024-04-15T05:53:27.447Z,18.17
2024-04-15T05:55:54.520Z,18.33
2024-04-15T05:58:21.807Z,18.22
2024-04-15T06:00:48.947Z,18.40
2024-04-15T06:03:16.005Z,18.54
2024-04-15T06:05:43.054Z,18.84
2024-04-15T06:08:11.743Z,19.12
2024-04-15T06:10:39.179Z,19.37
2024-04-15T06:13:06.231Z,19.58
2024-04-15T06:15:38.732Z,19.81
2024-04-15T06:18:06.867Z,19.95
2024-04-15T06:20:33.951Z,19.10
2024-04-15T06:23:00.981Z,19.82
2024-04-15T06:25:28.093Z,19.96
2024-04-15T06:27:55.115Z,20.33
2024-04-15T06:30:22.170Z,20.36
2024-04-15T06:32:49.283Z,20.56
2024-04-15T06:35:16.367Z,20.58
2024-04-15T06:37:43.443Z,20.93
2024-04-15T06:40:10.823Z,20.60
2024-04-15T06:42:37.860Z,20.92
2024-04-15T06:45:05.161Z,20.78
2024-04-15T06:47:32.222Z,20.95
2024-04-15T06:49:59.738Z,21.21
2024-04-15T06:52:27.675Z,21.50
2024-04-15T06:54:55.215Z,21.53
2024-04-15T06:57:22.412Z,21.68
2024-04-15T06:59:49.516Z,22.06
2024-04-15T07:02:21.158Z,21.78
2024-04-15T07:04:52.548Z,21.57
2024-04-15T07:09:47.572Z,21.67
2024-04-15T07:12:14.658Z,21.92
2024-04-15T07:14:41.819Z,21.82
2024-04-15T07:17:09.117Z,21.87
2024-04-15T07:19:36.284Z,22.01
2024-04-15T07:22:03.403Z,22.36
2024-04-15T07:24:30.953Z,22.61
2024-04-15T07:26:57.999Z,23.02
2024-04-15T07:29:24.993Z,23.28
2024-04-15T07:31:52.052Z,23.43
2024-04-15T07:34:19.146Z,23.53
2024-04-15T07:36:46.363Z,23.65
2024-04-15T07:39:13.445Z,23.65
2024-04-15T07:41:40.498Z,23.86
2024-04-15T07:44:07.567Z,23.66
2024-04-15T07:46:34.739Z,23.72
2024-04-15T07:49:01.805Z,23.60
2024-04-15T07:51:31.291Z,23.66
2024-04-15T07:53:58.518Z,23.94
2024-04-15T07:56:25.720Z,24.03
2024-04-15T07:58:52.781Z,24.06
2024-04-15T08:01:20.685Z,24.17
2024-04-15T08:03:47.834Z,24.28
2024-04-15T08:06:15.087Z,24.24
2024-04-15T08:08:43.062Z,23.85
2024-04-15T08:11:10.363Z,23.99
2024-04-15T08:13:37.476Z,23.65
2024-04-15T08:16:05.021Z,23.65
2024-04-15T08:18:32.110Z,23.72
2024-04-15T08:20:59.176Z,23.49
2024-04-15T08:23:26.931Z,23.89
2024-04-15T08:25:56.524Z,24.06
2024-04-15T08:28:24.958Z,24.22
2024-04-15T08:30:52.193Z,24.37
2024-04-15T08:33:19.325Z,24.58
2024-04-15T08:35:46.370Z,24.87
2024-04-15T08:38:13.454Z,24.70
2024-04-15T08:41:01.988Z,24.67
2024-04-15T08:43:29.565Z,24.88
2024-04-15T08:46:02.501Z,24.58
2024-04-15T08:48:30.111Z,24.62
2024-04-15T08:50:59.357Z,24.54
2024-04-15T08:53:26.702Z,24.60
2024-04-15T08:55:53.694Z,24.65
2024-04-15T08:58:21.462Z,24.72
2024-04-15T09:00:49.760Z,24.71
2024-04-15T09:03:17.933Z,24.73
2024-04-15T09:05:45.104Z,24.58
2024-04-15T09:08:13.604Z,24.80
2024-04-15T09:10:41.644Z,24.93
2024-04-15T09:13:11.111Z,25.20
2024-04-15T09:15:40.126Z,24.90
2024-04-15T09:18:07.935Z,25.00
2024-04-15T09:20:44.664Z,25.30
2024-04-15T09:23:21.784Z,25.34
2024-04-15T09:25:48.934Z,25.36
2024-04-15T09:28:16.286Z,25.42
2024-04-15T09:30:43.373Z,25.49
2024-04-15T09:33:14.170Z,25.17
2024-04-15T09:35:41.570Z,25.37
2024-04-15T09:38:11.774Z,25.76
2024-04-15T09:40:42.356Z,25.76
2024-04-15T09:43:11.704Z,25.86
2024-04-15T09:45:38.820Z,25.77
2024-04-15T09:48:06.325Z,26.01
2024-04-15T09:50:40.572Z,26.10
2024-04-15T09:53:18.653Z,26.20
2024-04-15T09:55:51.589Z,26.17
2024-04-15T09:58:21.831Z,26.33
2024-04-15T10:00:53.172Z,26.38
2024-04-15T10:03:24.521Z,26.64
2024-04-15T10:05:54.848Z,26.31
2024-04-15T10:08:23.115Z,26.24
2024-04-15T10:10:50.846Z,26.27
2024-04-15T10:13:18.285Z,26.44
2024-04-15T10:15:46.686Z,26.59
2024-04-15T10:18:15.735Z,26.83
2024-04-15T10:20:44.941Z,26.72
2024-04-15T10:23:16.353Z,26.96
2024-04-15T10:25:43.761Z,27.12
2024-04-15T10:28:12.952Z,26.91
2024-04-15T10:30:41.955Z,26.94
2024-04-15T10:33:12.449Z,27.38
2024-04-15T10:35:41.863Z,27.21
2024-04-15T10:38:10.457Z,27.35
2024-04-15T10:40:40.674Z,27.34
2024-04-15T10:43:08.231Z,27.48
2024-04-15T10:45:35.362Z,27.52
2024-04-15T10:48:02.672Z,27.78
2024-04-15T10:50:29.854Z,27.95
2024-04-15T10:52:56.939Z,28.13
2024-04-15T10:55:24.289Z,27.84
2024-04-15T10:57:51.769Z,27.85
2024-04-15T11:00:21.198Z,27.71
2024-04-15T11:02:54.020Z,27.72
2024-04-15T11:05:23.960Z,27.73
2024-04-15T11:07:55.135Z,27.82
2024-04-15T11:10:22.543Z,28.01
2024-04-15T11:12:54.091Z,28.24
2024-04-15T11:15:22.815Z,28.33
2024-04-15T11:17:52.127Z,27.96
2024-04-15T11:20:20.904Z,27.69
2024-04-15T11:22:48.670Z,27.36
2024-04-15T11:25:17.013Z,27.62
2024-04-15T11:27:55.210Z,27.90
2024-04-15T11:30:27.866Z,28.07
2024-04-15T11:33:00.530Z,28.42
2024-04-15T11:35:27.938Z,28.71
2024-04-15T11:37:59.734Z,28.68
2024-04-15T11:40:27.528Z,28.65
2024-04-15T11:42:58.330Z,28.66
2024-04-15T11:45:25.529Z,29.10
2024-04-15T11:47:56.648Z,29.13
2024-04-15T11:50:23.745Z,28.92
2024-04-15T11:52:51.101Z,28.63
2024-04-15T11:55:24.824Z,28.70
2024-04-15T11:57:52.260Z,28.92
2024-04-15T12:00:20.423Z,29.07
2024-04-15T12:02:48.946Z,29.16
2024-04-15T12:05:16.569Z,29.26
2024-04-15T12:07:44.702Z,29.30
2024-04-15T12:10:13.515Z,29.10
2024-04-15T12:12:40.765Z,29.37
2024-04-15T12:15:11.633Z,29.41
2024-04-15T12:17:39.385Z,29.31
2024-04-15T12:20:09.286Z,29.39
2024-04-15T12:22:36.861Z,29.31
2024-04-15T12:25:08.309Z,29.20
2024-04-15T12:27:39.549Z,28.81
2024-04-15T12:30:11.441Z,28.94
2024-04-15T12:32:42.930Z,29.03
2024-04-15T12:35:12.101Z,29.11
2024-04-15T12:37:39.710Z,28.93
2024-04-15T12:40:09.045Z,28.90
2024-04-15T12:42:36.404Z,28.87
2024-04-15T12:45:04.926Z,28.82
2024-04-15T12:47:33.143Z,28.77
2024-04-15T12:50:00.473Z,28.90
2024-04-15T12:52:27.784Z,28.66
2024-04-15T12:54:55.007Z,29.11
2024-04-15T12:57:22.362Z,29.09
2024-04-15T12:59:49.458Z,28.93
2024-04-15T13:02:16.734Z,28.75
2024-04-15T13:04:44.899Z,28.70
2024-04-15T13:07:13.087Z,28.80
2024-04-15T13:09:40.551Z,28.89
2024-04-15T13:12:11.431Z,28.85
2024-04-15T13:14:39.579Z,28.80
2024-04-15T13:17:06.897Z,28.87
2024-04-15T13:19:34.049Z,28.72
2024-04-15T13:22:02.467Z,28.65
2024-04-15T13:24:31.204Z,28.93
2024-04-15T13:26:58.403Z,29.06
2024-04-15T13:29:25.411Z,28.88
2024-04-15T13:32:01.299Z,28.96
2024-04-15T13:34:36.169Z,29.00
2024-04-15T13:37:03.773Z,28.96
2024-04-15T13:39:30.817Z,28.80
2024-04-15T13:41:58.810Z,28.81
2024-04-15T13:44:26.337Z,29.00
2024-04-15T13:46:53.590Z,29.03
2024-04-15T13:49:21.252Z,28.67
2024-04-15T13:51:48.449Z,29.07
2024-04-15T13:54:15.524Z,28.88
2024-04-15T13:56:42.627Z,28.98
2024-04-15T13:59:10.244Z,28.67
2024-04-15T14:01:37.371Z,28.82
2024-04-15T14:04:04.628Z,28.91
2024-04-15T14:06:32.678Z,28.94
2024-04-15T14:08:59.754Z,28.70
2024-04-15T14:11:26.889Z,28.80
2024-04-15T14:13:55.718Z,28.72
2024-04-15T14:16:24.213Z,28.91
2024-04-15T14:18:51.400Z,28.86
2024-04-15T14:21:18.462Z,28.83
2024-04-15T14:23:45.530Z,28.89
2024-04-15T14:26:12.730Z,28.82
2024-04-15T14:28:41.306Z,28.84
2024-04-15T14:31:08.385Z,28.68
2024-04-15T14:33:35.668Z,28.54
2024-04-15T14:36:03.571Z,28.44
2024-04-15T14:38:31.217Z,28.32
2024-04-15T14:40:58.653Z,28.38
2024-04-15T14:43:26.152Z,28.30
2024-04-15T14:45:54.479Z,28.17
2024-04-15T14:48:21.716Z,28.35
2024-04-15T14:50:48.832Z,28.41
2024-04-15T14:53:15.919Z,28.26
2024-04-15T14:55:43.079Z,28.21
2024-04-15T14:58:10.517Z,28.19
2024-04-15T15:00:37.734Z,28.24
2024-04-15T15:03:05.196Z,28.28
2024-04-15T15:05:32.295Z,28.29
2024-04-15T17:14:13.366Z,25.21
2024-04-15T17:16:40.532Z,25.24
2024-04-15T17:19:07.733Z,25.24
2024-04-15T17:21:34.902Z,25.24
2024-04-15T17:24:01.945Z,25.17
2024-04-15T17:26:29.071Z,25.21
2024-04-15T17:28:56.451Z,25.15
2024-04-15T17:31:23.741Z,25.14
2024-04-15T17:33:51.019Z,25.03
2024-04-15T17:36:18.282Z,24.91
2024-04-15T17:38:45.422Z,24.88
2024-04-15T17:41:12.602Z,24.88
2024-04-15T17:43:39.815Z,24.70
2024-04-15T17:46:08.969Z,24.91
2024-04-15T17:48:36.097Z,24.48
2024-04-15T17:51:05.303Z,24.61
2024-04-15T17:53:32.408Z,24.56
2024-04-15T17:56:00.928Z,24.53
2024-04-15T17:58:28.094Z,24.52
2024-04-15T18:00:55.201Z,24.43
2024-04-15T18:03:22.336Z,24.24
2024-04-15T18:05:49.657Z,24.27
2024-04-15T18:08:16.711Z,24.27
2024-04-15T18:10:43.840Z,23.94
2024-04-15T18:13:10.979Z,23.97
2024-04-15T18:15:38.109Z,23.84
2024-04-15T18:18:05.614Z,23.96
2024-04-15T18:20:32.724Z,23.82
2024-04-15T18:22:59.894Z,23.69
2024-04-15T18:25:26.991Z,23.68
2024-04-15T18:27:55.040Z,23.88
2024-04-15T18:30:25.362Z,23.66
2024-04-15T18:32:52.543Z,23.56
2024-04-15T18:35:19.750Z,23.17
2024-04-15T18:37:46.982Z,23.39
2024-04-15T18:40:14.301Z,23.36
2024-04-15T18:42:41.563Z,23.38
2024-04-15T18:45:08.738Z,22.94
2024-04-15T18:47:36.082Z,23.24
2024-04-15T18:50:04.640Z,23.17
2024-04-15T18:52:31.806Z,23.36
2024-04-15T18:54:58.876Z,23.33
2024-04-15T18:57:27.545Z,23.58
2024-04-15T18:59:54.639Z,23.30
2024-04-15T19:02:21.920Z,23.19
2024-04-15T19:04:49.239Z,23.31
2024-04-15T19:07:16.588Z,22.98
2024-04-15T19:09:43.767Z,23.31
2024-04-15T19:12:11.282Z,23.36
2024-04-15T19:14:52.087Z,23.23
2024-04-15T19:17:27.405Z,23.23
2024-04-15T19:19:54.777Z,23.11
2024-04-15T19:22:21.857Z,23.01
2024-04-15T19:24:49.307Z,22.59
2024-04-15T19:27:16.735Z,22.32
2024-04-15T19:29:46.178Z,22.32
2024-04-15T19:32:13.568Z,22.09
2024-04-15T19:34:40.810Z,22.01
2024-04-15T19:37:08.627Z,22.04
2024-04-15T19:39:36.793Z,22.27
2024-04-15T19:42:03.981Z,22.26
2024-04-15T19:44:31.206Z,22.34
2024-04-15T19:46:58.570Z,22.24
2024-04-15T19:49:25.843Z,22.06
2024-04-15T19:51:52.982Z,21.98
2024-04-15T19:54:20.361Z,21.97
2024-04-15T19:56:51.284Z,21.77
2024-04-15T19:59:18.599Z,21.44
2024-04-15T20:01:46.687Z,21.41
2024-04-15T20:04:13.910Z,21.41
2024-04-15T20:06:42.611Z,21.51
2024-04-15T20:09:09.830Z,21.35
2024-04-15T20:11:37.007Z,21.34
2024-04-15T20:14:06.607Z,21.30
2024-04-15T20:16:35.125Z,21.20
2024-04-15T20:19:07.572Z,21.22
2024-04-15T20:21:35.355Z,21.13
2024-04-15T20:24:02.560Z,21.12
2024-04-15T20:26:30.674Z,21.02
2024-04-15T20:28:57.935Z,21.03
2024-04-15T20:31:25.159Z,21.17
2024-04-15T20:33:52.309Z,21.14
2024-04-15T20:36:19.844Z,21.19
2024-04-15T20:38:46.944Z,21.25
2024-04-15T20:41:14.577Z,21.07
2024-04-15T20:43:41.902Z,21.03
2024-04-15T20:46:11.226Z,20.23
2024-04-15T20:48:38.623Z,20.17
2024-04-15T20:51:05.812Z,20.01
2024-04-15T20:53:32.911Z,19.85
2024-04-15T20:55:59.986Z,19.66
2024-04-15T20:58:27.118Z,19.71
2024-04-15T21:00:56.226Z,19.75
2024-04-15T21:03:23.533Z,19.85
2024-04-15T21:05:51.596Z,19.64
2024-04-15T21:08:18.657Z,19.20
2024-04-15T21:10:45.807Z,18.88
2024-04-15T21:13:14.039Z,19.25
2024-04-15T21:15:41.368Z,19.35
2024-04-15T21:18:08.575Z,19.28
2024-04-15T21:20:35.731Z,19.29
2024-04-15T21:23:02.849Z,19.63
2024-04-15T21:25:30.045Z,19.67
2024-04-15T21:27:57.639Z,19.35
2024-04-15T21:30:25.055Z,19.00
2024-04-15T21:32:52.180Z,19.28
2024-04-15T21:35:21.180Z,19.28
2024-04-15T21:37:48.223Z,19.08
2024-04-15T21:40:15.418Z,19.37
2024-04-15T21:42:42.677Z,19.15
2024-04-15T21:45:09.788Z,19.26
2024-04-15T21:47:37.029Z,19.31
2024-04-15T21:50:04.893Z,19.51
2024-04-15T21:56:13.241Z,19.66
2024-04-15T21:58:41.536Z,19.48
2024-04-15T22:01:09.324Z,19.03
2024-04-15T22:03:36.468Z,18.62
2024-04-15T22:06:04.766Z,18.66
2024-04-15T22:08:32.154Z,18.45
2024-04-15T22:10:59.786Z,18.57
2024-04-15T22:13:30.059Z,18.26
2024-04-15T22:15:57.446Z,18.44
2024-04-15T22:18:24.529Z,18.68
2024-04-15T22:20:51.623Z,18.64
2024-04-15T22:23:18.680Z,19.11
2024-04-15T22:25:57.303Z,19.00
2024-04-15T22:28:24.704Z,19.03
2024-04-15T22:30:56.764Z,18.99
2024-04-15T22:33:26.783Z,18.75
2024-04-15T22:35:53.908Z,18.36
2024-04-15T22:38:20.993Z,17.62
2024-04-15T22:40:49.560Z,17.49
2024-04-15T22:43:18.526Z,17.57
2024-04-15T22:45:47.062Z,17.84
2024-04-15T22:48:14.341Z,18.20
2024-04-15T22:50:41.420Z,18.48
2024-04-15T22:53:08.514Z,18.33
2024-04-15T22:55:35.605Z,18.12
2024-04-15T22:58:03.186Z,17.61
2024-04-15T23:00:30.369Z,17.61
2024-04-15T23:02:57.496Z,17.61
2024-04-15T23:05:25.021Z,17.16
2024-04-15T23:07:52.044Z,16.83
2024-04-15T23:10:19.159Z,16.73
2024-04-15T23:12:46.218Z,16.67
2024-04-15T23:15:13.338Z,16.77
2024-04-15T23:17:40.466Z,16.77
2024-04-15T23:20:08.322Z,16.84
2024-04-15T23:22:35.457Z,16.96
2024-04-15T23:25:02.616Z,16.95
2024-04-15T23:27:29.697Z,17.34
2024-04-15T23:29:56.728Z,17.39
2024-04-15T23:32:23.829Z,17.62
2024-04-15T23:34:50.950Z,17.80
2024-04-15T23:37:18.050Z,18.03
2024-04-15T23:39:45.339Z,17.95
2024-04-15T23:42:12.937Z,18.08
2024-04-15T23:44:40.393Z,18.21
2024-04-15T23:47:26.333Z,18.11
2024-04-15T23:50:11.851Z,18.16
2024-04-15T23:52:58.290Z,17.96
2024-04-15T23:55:43.990Z,17.94
2024-04-15T23:58:14.381Z,17.86
